Skip Navigation Links Skip Navigation Links

Current Weather

Dodge County, Juneau, Wis.

For information only: do not use for flight planning or navigation.
Latest weather
Observation time Thursday, October 17, 2019 12:35 AM CDT
Local time Thursday, October 17, 2019 12:49 AM CDT
Flight conditions Visual Meteorological Conditions
Winds
Wind speed calm
Visibility 10 mi.
Sky condition
Ceiling unlimited
Cloud layer scattered clouds 3,800 ft.
Temperature 38°F
Dewpoint 35°F
Altimeter 30.02 in.Hg
Derived measurements
Relative humidity 87%
Wind chill 38°F
Density altitude -471 ft.
Remarks
Fully automated report.
Automated weather observing station with precipitation discriminator.
METAR KUNU 170535Z AUTO 00000KT 10SM SCT038 04/02 A3002 RMK AO2 T00350015

Settings

Location code

InnerDrive.Weather 4.0.6770.0 Release CLR 4.0.30319.42000
Copyright ©2018 Inner Drive Technology. All rights reserved. Portions Copyright ©1986-2018 David Braverman.

Find weather

Site navigation


Skip Navigation Links

Place info

Page info

PayPal - The safer, easier way to pay online!

Return home.

Copyright ©2019 Inner Drive Technology. Purveyors of fine, hand-crafted computer software. Page printed 2019-10-17T05:49:31 UTC.